sensor_id;sensor_type;location;lat;lon;timestamp;temperature;humidity
67364;HTU21D;54250;45.572;38.086;2023-05-10T00:01:49;9.04;93.47
67364;HTU21D;54250;45.572;38.086;2023-05-10T00:04:15;9.03;93.49
67364;HTU21D;54250;45.572;38.086;2023-05-10T00:06:41;9.03;93.52
67364;HTU21D;54250;45.572;38.086;2023-05-10T00:09:07;9.01;93.53
67364;HTU21D;54250;45.572;38.086;2023-05-10T00:11:33;9.01;93.57
67364;HTU21D;54250;45.572;38.086;2023-05-10T00:14:00;9.02;93.53
67364;HTU21D;54250;45.572;38.086;2023-05-10T00:16:26;9.01;93.55
67364;HTU21D;54250;45.572;38.086;2023-05-10T00:18:52;9.01;93.53
67364;HTU21D;54250;45.572;38.086;2023-05-10T00:21:18;9.00;93.54
67364;HTU21D;54250;45.572;38.086;2023-05-10T00:23:44;9.01;93.59
67364;HTU21D;54250;45.572;38.086;2023-05-10T00:26:10;8.98;93.59
67364;HTU21D;54250;45.572;38.086;2023-05-10T00:28:37;8.98;93.59
67364;HTU21D;54250;45.572;38.086;2023-05-10T00:31:03;8.97;93.59
67364;HTU21D;54250;45.572;38.086;2023-05-10T00:33:29;8.96;93.60
67364;HTU21D;54250;45.572;38.086;2023-05-10T00:35:55;8.95;93.63
67364;HTU21D;54250;45.572;38.086;2023-05-10T00:38:21;8.93;93.60
67364;HTU21D;54250;45.572;38.086;2023-05-10T00:40:47;8.94;93.59
67364;HTU21D;54250;45.572;38.086;2023-05-10T00:43:22;8.94;93.57
67364;HTU21D;54250;45.572;38.086;2023-05-10T00:45:48;8.95;93.57
67364;HTU21D;54250;45.572;38.086;2023-05-10T00:48:15;8.94;93.56
67364;HTU21D;54250;45.572;38.086;2023-05-10T00:50:41;8.93;93.58
67364;HTU21D;54250;45.572;38.086;2023-05-10T00:53:08;8.92;93.59
67364;HTU21D;54250;45.572;38.086;2023-05-10T00:55:34;8.94;93.60
67364;HTU21D;54250;45.572;38.086;2023-05-10T00:58:00;8.95;93.59
67364;HTU21D;54250;45.572;38.086;2023-05-10T01:00:27;8.94;93.60
67364;HTU21D;54250;45.572;38.086;2023-05-10T01:02:54;8.93;93.59
67364;HTU21D;54250;45.572;38.086;2023-05-10T01:05:21;8.91;93.59
67364;HTU21D;54250;45.572;38.086;2023-05-10T01:07:47;8.90;93.63
67364;HTU21D;54250;45.572;38.086;2023-05-10T01:10:14;8.89;93.64
67364;HTU21D;54250;45.572;38.086;2023-05-10T01:12:43;8.88;93.63
67364;HTU21D;54250;45.572;38.086;2023-05-10T01:15:10;8.88;93.64
67364;HTU21D;54250;45.572;38.086;2023-05-10T01:17:39;8.89;93.62
67364;HTU21D;54250;45.572;38.086;2023-05-10T01:20:07;8.88;93.62
67364;HTU21D;54250;45.572;38.086;2023-05-10T01:35:51;8.74;93.66
67364;HTU21D;54250;45.572;38.086;2023-05-10T01:41:01;8.75;93.67
67364;HTU21D;54250;45.572;38.086;2023-05-10T01:43:33;8.72;93.71
67364;HTU21D;54250;45.572;38.086;2023-05-10T01:46:07;8.73;93.72
67364;HTU21D;54250;45.572;38.086;2023-05-10T01:48:42;8.71;93.72
67364;HTU21D;54250;45.572;38.086;2023-05-10T01:51:15;8.71;93.72
67364;HTU21D;54250;45.572;38.086;2023-05-10T01:53:44;8.70;93.73
67364;HTU21D;54250;45.572;38.086;2023-05-10T01:56:11;8.71;93.75
67364;HTU21D;54250;45.572;38.086;2023-05-10T01:58:40;8.67;93.72
67364;HTU21D;54250;45.572;38.086;2023-05-10T02:01:11;8.67;93.72
67364;HTU21D;54250;45.572;38.086;2023-05-10T02:03:38;8.66;93.72
67364;HTU21D;54250;45.572;38.086;2023-05-10T02:06:06;8.65;93.74
67364;HTU21D;54250;45.572;38.086;2023-05-10T02:08:35;8.64;93.72
67364;HTU21D;54250;45.572;38.086;2023-05-10T02:11:03;8.64;93.77
67364;HTU21D;54250;45.572;38.086;2023-05-10T02:13:34;8.62;93.75
67364;HTU21D;54250;45.572;38.086;2023-05-10T02:16:03;8.61;93.75
67364;HTU21D;54250;45.572;38.086;2023-05-10T02:18:32;8.62;93.74
67364;HTU21D;54250;45.572;38.086;2023-05-10T02:21:02;8.63;93.74
67364;HTU21D;54250;45.572;38.086;2023-05-10T02:23:29;8.65;93.71
67364;HTU21D;54250;45.572;38.086;2023-05-10T02:25:56;8.65;93.70
67364;HTU21D;54250;45.572;38.086;2023-05-10T02:28:24;8.66;93.71
67364;HTU21D;54250;45.572;38.086;2023-05-10T02:30:53;8.66;93.69
67364;HTU21D;54250;45.572;38.086;2023-05-10T02:33:20;8.71;93.66
67364;HTU21D;54250;45.572;38.086;2023-05-10T02:35:47;8.71;93.65
67364;HTU21D;54250;45.572;38.086;2023-05-10T02:38:14;8.72;93.62
67364;HTU21D;54250;45.572;38.086;2023-05-10T02:40:41;8.73;93.62
67364;HTU21D;54250;45.572;38.086;2023-05-10T02:43:12;8.74;93.53
67364;HTU21D;54250;45.572;38.086;2023-05-10T02:45:40;8.75;93.54
67364;HTU21D;54250;45.572;38.086;2023-05-10T02:48:08;8.76;93.53
67364;HTU21D;54250;45.572;38.086;2023-05-10T02:50:35;8.78;93.46
67364;HTU21D;54250;45.572;38.086;2023-05-10T02:53:10;8.83;93.39
67364;HTU21D;54250;45.572;38.086;2023-05-10T02:55:40;8.88;93.33
67364;HTU21D;54250;45.572;38.086;2023-05-10T02:58:07;8.91;93.26
67364;HTU21D;54250;45.572;38.086;2023-05-10T03:00:33;8.91;93.24
67364;HTU21D;54250;45.572;38.086;2023-05-10T03:02:59;8.95;93.24
67364;HTU21D;54250;45.572;38.086;2023-05-10T03:05:27;8.98;93.18
67364;HTU21D;54250;45.572;38.086;2023-05-10T03:07:53;9.00;93.19
67364;HTU21D;54250;45.572;38.086;2023-05-10T03:10:24;9.00;93.14
67364;HTU21D;54250;45.572;38.086;2023-05-10T03:16:01;9.03;93.17
67364;HTU21D;54250;45.572;38.086;2023-05-10T03:18:41;9.05;93.11
67364;HTU21D;54250;45.572;38.086;2023-05-10T03:21:11;9.10;93.09
67364;HTU21D;54250;45.572;38.086;2023-05-10T03:23:45;9.18;93.01
67364;HTU21D;54250;45.572;38.086;2023-05-10T03:26:18;9.26;92.86
67364;HTU21D;54250;45.572;38.086;2023-05-10T03:28:47;9.33;92.78
67364;HTU21D;54250;45.572;38.086;2023-05-10T03:31:14;9.38;92.66
67364;HTU21D;54250;45.572;38.086;2023-05-10T03:33:48;9.45;92.59
67364;HTU21D;54250;45.572;38.086;2023-05-10T03:36:18;9.46;92.59
67364;HTU21D;54250;45.572;38.086;2023-05-10T03:38:45;9.49;92.55
67364;HTU21D;54250;45.572;38.086;2023-05-10T03:41:11;9.48;92.56
67364;HTU21D;54250;45.572;38.086;2023-05-10T03:43:37;9.52;92.58
67364;HTU21D;54250;45.572;38.086;2023-05-10T03:46:05;9.61;92.45
67364;HTU21D;54250;45.572;38.086;2023-05-10T03:48:32;9.65;92.37
67364;HTU21D;54250;45.572;38.086;2023-05-10T03:50:58;9.68;92.30
67364;HTU21D;54250;45.572;38.086;2023-05-10T03:53:25;9.71;92.29
67364;HTU21D;54250;45.572;38.086;2023-05-10T03:55:51;9.72;92.30
67364;HTU21D;54250;45.572;38.086;2023-05-10T03:58:17;9.75;92.28
67364;HTU21D;54250;45.572;38.086;2023-05-10T04:00:44;9.76;92.27
67364;HTU21D;54250;45.572;38.086;2023-05-10T04:03:12;9.75;92.27
67364;HTU21D;54250;45.572;38.086;2023-05-10T04:05:39;9.72;92.27
67364;HTU21D;54250;45.572;38.086;2023-05-10T04:08:05;9.67;92.29
67364;HTU21D;54250;45.572;38.086;2023-05-10T04:10:32;9.64;92.32
67364;HTU21D;54250;45.572;38.086;2023-05-10T04:12:58;9.61;92.36
67364;HTU21D;54250;45.572;38.086;2023-05-10T04:15:24;9.56;92.38
67364;HTU21D;54250;45.572;38.086;2023-05-10T04:17:50;9.55;92.40
67364;HTU21D;54250;45.572;38.086;2023-05-10T04:20:16;9.55;92.35
67364;HTU21D;54250;45.572;38.086;2023-05-10T04:22:42;9.54;92.32
67364;HTU21D;54250;45.572;38.086;2023-05-10T04:25:09;9.55;92.30
67364;HTU21D;54250;45.572;38.086;2023-05-10T04:27:35;9.62;92.27
67364;HTU21D;54250;45.572;38.086;2023-05-10T04:30:01;9.67;92.11
67364;HTU21D;54250;45.572;38.086;2023-05-10T04:32:27;9.76;91.99
67364;HTU21D;54250;45.572;38.086;2023-05-10T04:34:53;9.85;91.89
67364;HTU21D;54250;45.572;38.086;2023-05-10T04:37:19;9.97;91.68
67364;HTU21D;54250;45.572;38.086;2023-05-10T04:39:47;10.05;91.50
67364;HTU21D;54250;45.572;38.086;2023-05-10T04:42:13;10.09;91.49
67364;HTU21D;54250;45.572;38.086;2023-05-10T04:44:40;10.11;91.52
67364;HTU21D;54250;45.572;38.086;2023-05-10T04:47:06;10.12;91.56
67364;HTU21D;54250;45.572;38.086;2023-05-10T04:49:33;10.23;91.51
67364;HTU21D;54250;45.572;38.086;2023-05-10T04:51:59;10.37;91.31
67364;HTU21D;54250;45.572;38.086;2023-05-10T04:54:25;10.51;91.08
67364;HTU21D;54250;45.572;38.086;2023-05-10T04:56:51;10.60;90.89
67364;HTU21D;54250;45.572;38.086;2023-05-10T04:59:17;10.73;90.75
67364;HTU21D;54250;45.572;38.086;2023-05-10T05:01:43;10.84;90.57
67364;HTU21D;54250;45.572;38.086;2023-05-10T05:04:09;10.89;90.53
67364;HTU21D;54250;45.572;38.086;2023-05-10T05:06:35;10.90;90.57
67364;HTU21D;54250;45.572;38.086;2023-05-10T05:09:01;10.94;90.67
67364;HTU21D;54250;45.572;38.086;2023-05-10T05:11:28;10.98;90.60
67364;HTU21D;54250;45.572;38.086;2023-05-10T05:13:54;11.00;90.56
67364;HTU21D;54250;45.572;38.086;2023-05-10T05:16:20;11.01;90.57
67364;HTU21D;54250;45.572;38.086;2023-05-10T05:18:46;11.07;90.50
67364;HTU21D;54250;45.572;38.086;2023-05-10T05:21:16;11.18;90.32
67364;HTU21D;54250;45.572;38.086;2023-05-10T05:23:43;11.29;90.11
67364;HTU21D;54250;45.572;38.086;2023-05-10T05:26:09;11.38;89.88
67364;HTU21D;54250;45.572;38.086;2023-05-10T05:28:36;11.44;89.83
67364;HTU21D;54250;45.572;38.086;2023-05-10T05:31:06;11.64;89.58
67364;HTU21D;54250;45.572;38.086;2023-05-10T05:33:35;11.79;89.21
67364;HTU21D;54250;45.572;38.086;2023-05-10T05:36:03;12.04;88.89
67364;HTU21D;54250;45.572;38.086;2023-05-10T05:38:29;12.32;88.33
67364;HTU21D;54250;45.572;38.086;2023-05-10T05:40:56;12.61;87.73
67364;HTU21D;54250;45.572;38.086;2023-05-10T05:43:22;12.82;87.32
67364;HTU21D;54250;45.572;38.086;2023-05-10T05:45:49;12.97;87.09
67364;HTU21D;54250;45.572;38.086;2023-05-10T05:48:15;13.05;86.98
67364;HTU21D;54250;45.572;38.086;2023-05-10T05:50:41;13.26;86.86
67364;HTU21D;54250;45.572;38.086;2023-05-10T05:53:07;13.61;86.24
67364;HTU21D;54250;45.572;38.086;2023-05-10T05:55:34;13.97;85.61
67364;HTU21D;54250;45.572;38.086;2023-05-10T05:58:00;14.18;84.67
67364;HTU21D;54250;45.572;38.086;2023-05-10T06:00:26;14.67;85.59
67364;HTU21D;54250;45.572;38.086;2023-05-10T06:02:52;18.82;75.44
67364;HTU21D;54250;45.572;38.086;2023-05-10T06:05:18;21.68;68.65
67364;HTU21D;54250;45.572;38.086;2023-05-10T06:07:46;24.10;65.11
67364;HTU21D;54250;45.572;38.086;2023-05-10T06:10:12;26.05;62.11
67364;HTU21D;54250;45.572;38.086;2023-05-10T06:12:38;26.34;62.04
67364;HTU21D;54250;45.572;38.086;2023-05-10T06:15:04;24.18;66.84
67364;HTU21D;54250;45.572;38.086;2023-05-10T06:17:31;24.30;67.65
67364;HTU21D;54250;45.572;38.086;2023-05-10T06:19:57;24.47;66.61
67364;HTU21D;54250;45.572;38.086;2023-05-10T06:22:23;23.21;69.00
67364;HTU21D;54250;45.572;38.086;2023-05-10T06:24:49;22.32;70.67
67364;HTU21D;54250;45.572;38.086;2023-05-10T06:27:15;23.00;68.58
67364;HTU21D;54250;45.572;38.086;2023-05-10T06:29:41;22.90;67.73
67364;HTU21D;54250;45.572;38.086;2023-05-10T06:32:07;21.78;69.53
67364;HTU21D;54250;45.572;38.086;2023-05-10T06:34:33;20.48;71.89
67364;HTU21D;54250;45.572;38.086;2023-05-10T06:37:00;20.66;71.45
67364;HTU21D;54250;45.572;38.086;2023-05-10T06:39:26;20.89;69.94
67364;HTU21D;54250;45.572;38.086;2023-05-10T06:41:52;20.79;69.61
67364;HTU21D;54250;45.572;38.086;2023-05-10T06:44:18;22.69;66.52
67364;HTU21D;54250;45.572;38.086;2023-05-10T06:46:45;25.64;59.60
67364;HTU21D;54250;45.572;38.086;2023-05-10T06:49:11;25.76;58.54
67364;HTU21D;54250;45.572;38.086;2023-05-10T06:51:37;25.50;59.62
67364;HTU21D;54250;45.572;38.086;2023-05-10T06:54:03;24.79;60.94
67364;HTU21D;54250;45.572;38.086;2023-05-10T06:56:29;24.69;61.54
67364;HTU21D;54250;45.572;38.086;2023-05-10T06:58:55;26.46;57.90
67364;HTU21D;54250;45.572;38.086;2023-05-10T07:01:21;29.32;51.82
67364;HTU21D;54250;45.572;38.086;2023-05-10T07:03:47;29.15;51.88
67364;HTU21D;54250;45.572;38.086;2023-05-10T07:06:13;27.31;54.64
67364;HTU21D;54250;45.572;38.086;2023-05-10T07:08:39;25.17;58.56
67364;HTU21D;54250;45.572;38.086;2023-05-10T07:11:06;24.05;60.73
67364;HTU21D;54250;45.572;38.086;2023-05-10T07:13:38;23.85;60.56
67364;HTU21D;54250;45.572;38.086;2023-05-10T07:16:07;22.75;61.48
67364;HTU21D;54250;45.572;38.086;2023-05-10T07:18:33;21.81;62.67
67364;HTU21D;54250;45.572;38.086;2023-05-10T07:20:59;20.85;63.60
67364;HTU21D;54250;45.572;38.086;2023-05-10T07:23:25;19.77;64.66
67364;HTU21D;54250;45.572;38.086;2023-05-10T07:25:52;18.73;65.84
67364;HTU21D;54250;45.572;38.086;2023-05-10T07:28:18;17.84;67.14
67364;HTU21D;54250;45.572;38.086;2023-05-10T07:30:44;17.09;68.04
67364;HTU21D;54250;45.572;38.086;2023-05-10T07:33:14;16.33;68.88
67364;HTU21D;54250;45.572;38.086;2023-05-10T07:35:40;15.72;69.65
67364;HTU21D;54250;45.572;38.086;2023-05-10T07:38:06;15.23;70.23
67364;HTU21D;54250;45.572;38.086;2023-05-10T07:40:32;14.82;70.82
67364;HTU21D;54250;45.572;38.086;2023-05-10T07:42:58;14.49;71.15
67364;HTU21D;54250;45.572;38.086;2023-05-10T07:45:27;14.22;71.59
67364;HTU21D;54250;45.572;38.086;2023-05-10T07:47:53;14.03;71.77
67364;HTU21D;54250;45.572;38.086;2023-05-10T07:50:20;13.83;71.94
67364;HTU21D;54250;45.572;38.086;2023-05-10T07:52:47;13.68;72.22
67364;HTU21D;54250;45.572;38.086;2023-05-10T07:55:13;13.58;72.38
67364;HTU21D;54250;45.572;38.086;2023-05-10T07:57:40;13.63;72.37
67364;HTU21D;54250;45.572;38.086;2023-05-10T08:00:06;13.74;72.19
67364;HTU21D;54250;45.572;38.086;2023-05-10T08:02:38;13.96;71.91
67364;HTU21D;54250;45.572;38.086;2023-05-10T08:05:05;14.39;71.51
67364;HTU21D;54250;45.572;38.086;2023-05-10T08:07:31;15.03;70.56
67364;HTU21D;54250;45.572;38.086;2023-05-10T08:09:58;16.14;68.88
67364;HTU21D;54250;45.572;38.086;2023-05-10T08:12:24;18.66;64.11
67364;HTU21D;54250;45.572;38.086;2023-05-10T08:14:50;20.68;61.04
67364;HTU21D;54250;45.572;38.086;2023-05-10T08:17:16;22.31;58.45
67364;HTU21D;54250;45.572;38.086;2023-05-10T08:19:42;23.83;56.31
67364;HTU21D;54250;45.572;38.086;2023-05-10T08:22:08;23.95;56.27
67364;HTU21D;54250;45.572;38.086;2023-05-10T08:24:34;22.99;58.50
67364;HTU21D;54250;45.572;38.086;2023-05-10T08:27:05;22.34;59.72
67364;HTU21D;54250;45.572;38.086;2023-05-10T08:29:31;22.03;60.58
67364;HTU21D;54250;45.572;38.086;2023-05-10T08:31:57;21.93;60.35
67364;HTU21D;54250;45.572;38.086;2023-05-10T08:34:23;23.44;58.38
67364;HTU21D;54250;45.572;38.086;2023-05-10T08:36:49;24.54;55.45
67364;HTU21D;54250;45.572;38.086;2023-05-10T08:39:15;23.92;56.50
67364;HTU21D;54250;45.572;38.086;2023-05-10T08:41:44;22.85;57.66
67364;HTU21D;54250;45.572;38.086;2023-05-10T08:44:10;21.54;60.24
67364;HTU21D;54250;45.572;38.086;2023-05-10T08:46:37;20.61;61.83
67364;HTU21D;54250;45.572;38.086;2023-05-10T08:49:07;20.14;62.01
67364;HTU21D;54250;45.572;38.086;2023-05-10T08:51:36;19.92;62.11
67364;HTU21D;54250;45.572;38.086;2023-05-10T08:54:05;19.88;62.05
67364;HTU21D;54250;45.572;38.086;2023-05-10T08:56:32;19.84;61.82
67364;HTU21D;54250;45.572;38.086;2023-05-10T08:58:58;19.98;61.34
67364;HTU21D;54250;45.572;38.086;2023-05-10T09:01:25;20.05;61.23
67364;HTU21D;54250;45.572;38.086;2023-05-10T09:03:52;20.15;60.57
67364;HTU21D;54250;45.572;38.086;2023-05-10T09:06:18;20.01;60.51
67364;HTU21D;54250;45.572;38.086;2023-05-10T09:08:45;19.87;60.64
67364;HTU21D;54250;45.572;38.086;2023-05-10T09:11:11;19.69;60.81
67364;HTU21D;54250;45.572;38.086;2023-05-10T09:13:38;19.58;60.96
67364;HTU21D;54250;45.572;38.086;2023-05-10T09:16:04;19.55;61.04
67364;HTU21D;54250;45.572;38.086;2023-05-10T09:18:31;19.54;61.05
67364;HTU21D;54250;45.572;38.086;2023-05-10T09:20:57;19.42;61.15
67364;HTU21D;54250;45.572;38.086;2023-05-10T09:23:23;19.37;61.16
67364;HTU21D;54250;45.572;38.086;2023-05-10T09:26:07;19.36;61.09
67364;HTU21D;54250;45.572;38.086;2023-05-10T09:28:34;19.46;61.07
67364;HTU21D;54250;45.572;38.086;2023-05-10T09:31:15;19.76;60.61
67364;HTU21D;54250;45.572;38.086;2023-05-10T09:33:45;19.88;60.35
67364;HTU21D;54250;45.572;38.086;2023-05-10T09:36:12;19.81;60.48
67364;HTU21D;54250;45.572;38.086;2023-05-10T09:38:49;19.96;60.36
67364;HTU21D;54250;45.572;38.086;2023-05-10T09:41:22;20.21;59.66
67364;HTU21D;54250;45.572;38.086;2023-05-10T09:43:49;20.45;59.12
67364;HTU21D;54250;45.572;38.086;2023-05-10T09:46:16;20.75;58.37
67364;HTU21D;54250;45.572;38.086;2023-05-10T09:48:44;21.02;58.14
67364;HTU21D;54250;45.572;38.086;2023-05-10T09:51:21;21.49;57.65
67364;HTU21D;54250;45.572;38.086;2023-05-10T09:53:48;21.69;57.46
67364;HTU21D;54250;45.572;38.086;2023-05-10T09:56:35;21.67;57.60
67364;HTU21D;54250;45.572;38.086;2023-05-10T09:59:02;21.66;57.84
67364;HTU21D;54250;45.572;38.086;2023-05-10T10:01:29;21.42;58.10
67364;HTU21D;54250;45.572;38.086;2023-05-10T10:03:56;21.36;58.34
67364;HTU21D;54250;45.572;38.086;2023-05-10T10:06:24;21.24;58.19
67364;HTU21D;54250;45.572;38.086;2023-05-10T10:08:50;21.08;58.29
67364;HTU21D;54250;45.572;38.086;2023-05-10T10:11:17;20.91;58.43
67364;HTU21D;54250;45.572;38.086;2023-05-10T10:13:43;20.87;58.48
67364;HTU21D;54250;45.572;38.086;2023-05-10T10:16:09;21.04;57.94
67364;HTU21D;54250;45.572;38.086;2023-05-10T10:18:38;21.00;57.74
67364;HTU21D;54250;45.572;38.086;2023-05-10T10:21:08;20.94;57.68
67364;HTU21D;54250;45.572;38.086;2023-05-10T10:23:37;20.75;57.97
67364;HTU21D;54250;45.572;38.086;2023-05-10T10:26:04;20.75;57.69
67364;HTU21D;54250;45.572;38.086;2023-05-10T10:31:47;20.73;57.29
67364;HTU21D;54250;45.572;38.086;2023-05-10T10:34:34;20.48;57.73
67364;HTU21D;54250;45.572;38.086;2023-05-10T10:37:04;20.40;57.58
67364;HTU21D;54250;45.572;38.086;2023-05-10T10:39:31;20.45;57.49
67364;HTU21D;54250;45.572;38.086;2023-05-10T10:41:58;20.37;57.45
67364;HTU21D;54250;45.572;38.086;2023-05-10T10:52:23;19.61;58.36
67364;HTU21D;54250;45.572;38.086;2023-05-10T10:55:09;18.88;59.69
67364;HTU21D;54250;45.572;38.086;2023-05-10T10:57:53;18.18;60.64
67364;HTU21D;54250;45.572;38.086;2023-05-10T11:00:35;17.75;61.34
67364;HTU21D;54250;45.572;38.086;2023-05-10T11:03:05;17.44;61.70
67364;HTU21D;54250;45.572;38.086;2023-05-10T11:05:40;17.39;61.79
67364;HTU21D;54250;45.572;38.086;2023-05-10T11:08:12;17.41;61.56
67364;HTU21D;54250;45.572;38.086;2023-05-10T11:10:39;17.55;61.30
67364;HTU21D;54250;45.572;38.086;2023-05-10T11:13:09;17.81;60.77
67364;HTU21D;54250;45.572;38.086;2023-05-10T11:15:37;17.99;60.50
67364;HTU21D;54250;45.572;38.086;2023-05-10T11:18:20;18.27;60.21
67364;HTU21D;54250;45.572;38.086;2023-05-10T11:23:21;18.66;59.86
67364;HTU21D;54250;45.572;38.086;2023-05-10T11:25:48;18.83;59.91
67364;HTU21D;54250;45.572;38.086;2023-05-10T11:28:17;18.88;59.83
67364;HTU21D;54250;45.572;38.086;2023-05-10T11:30:43;18.97;59.89
67364;HTU21D;54250;45.572;38.086;2023-05-10T11:33:15;18.92;59.88
67364;HTU21D;54250;45.572;38.086;2023-05-10T11:35:42;18.71;60.38
67364;HTU21D;54250;45.572;38.086;2023-05-10T11:38:09;18.62;60.54
67364;HTU21D;54250;45.572;38.086;2023-05-10T11:40:36;18.36;60.93
67364;HTU21D;54250;45.572;38.086;2023-05-10T11:43:03;17.98;61.50
67364;HTU21D;54250;45.572;38.086;2023-05-10T11:45:33;17.61;62.09
67364;HTU21D;54250;45.572;38.086;2023-05-10T11:47:59;17.28;62.31
67364;HTU21D;54250;45.572;38.086;2023-05-10T11:50:27;17.00;62.60
67364;HTU21D;54250;45.572;38.086;2023-05-10T11:52:55;16.81;62.89
67364;HTU21D;54250;45.572;38.086;2023-05-10T11:55:21;16.75;63.12
67364;HTU21D;54250;45.572;38.086;2023-05-10T11:57:51;16.92;62.71
67364;HTU21D;54250;45.572;38.086;2023-05-10T12:00:18;17.10;62.31
67364;HTU21D;54250;45.572;38.086;2023-05-10T12:02:44;17.16;62.25
67364;HTU21D;54250;45.572;38.086;2023-05-10T12:05:10;17.04;62.50
67364;HTU21D;54250;45.572;38.086;2023-05-10T12:07:36;16.91;62.82
67364;HTU21D;54250;45.572;38.086;2023-05-10T12:10:12;16.85;63.06
67364;HTU21D;54250;45.572;38.086;2023-05-10T12:12:45;16.75;63.21
67364;HTU21D;54250;45.572;38.086;2023-05-10T12:15:20;16.60;63.36
67364;HTU21D;54250;45.572;38.086;2023-05-10T12:17:47;16.40;63.54
67364;HTU21D;54250;45.572;38.086;2023-05-10T12:20:21;16.25;63.56
67364;HTU21D;54250;45.572;38.086;2023-05-10T12:22:55;16.18;63.89
67364;HTU21D;54250;45.572;38.086;2023-05-10T12:25:23;16.20;63.79
67364;HTU21D;54250;45.572;38.086;2023-05-10T12:27:57;16.37;63.62
67364;HTU21D;54250;45.572;38.086;2023-05-10T12:30:29;16.70;63.17
67364;HTU21D;54250;45.572;38.086;2023-05-10T12:33:06;17.09;62.59
67364;HTU21D;54250;45.572;38.086;2023-05-10T12:35:33;17.30;62.42
67364;HTU21D;54250;45.572;38.086;2023-05-10T12:40:59;17.30;62.39
67364;HTU21D;54250;45.572;38.086;2023-05-10T12:43:26;17.41;62.24
67364;HTU21D;54250;45.572;38.086;2023-05-10T12:45:52;17.59;62.02
67364;HTU21D;54250;45.572;38.086;2023-05-10T12:48:19;17.85;61.53
67364;HTU21D;54250;45.572;38.086;2023-05-10T12:50:48;18.06;61.44
67364;HTU21D;54250;45.572;38.086;2023-05-10T12:53:16;18.23;61.21
67364;HTU21D;54250;45.572;38.086;2023-05-10T12:55:43;18.13;61.57
67364;HTU21D;54250;45.572;38.086;2023-05-10T12:58:09;18.04;61.78
67364;HTU21D;54250;45.572;38.086;2023-05-10T13:00:35;17.90;61.99
67364;HTU21D;54250;45.572;38.086;2023-05-10T13:03:04;17.85;62.24
67364;HTU21D;54250;45.572;38.086;2023-05-10T13:05:33;17.98;62.00
67364;HTU21D;54250;45.572;38.086;2023-05-10T13:08:00;18.14;61.86
67364;HTU21D;54250;45.572;38.086;2023-05-10T13:10:26;18.28;61.62
67364;HTU21D;54250;45.572;38.086;2023-05-10T13:12:52;18.52;61.27
67364;HTU21D;54250;45.572;38.086;2023-05-10T13:15:18;18.54;61.11
67364;HTU21D;54250;45.572;38.086;2023-05-10T13:17:44;18.48;61.17
67364;HTU21D;54250;45.572;38.086;2023-05-10T13:20:11;18.30;61.23
67364;HTU21D;54250;45.572;38.086;2023-05-10T13:22:37;17.85;61.82
67364;HTU21D;54250;45.572;38.086;2023-05-10T13:25:03;17.50;62.47
67364;HTU21D;54250;45.572;38.086;2023-05-10T13:27:30;17.40;62.74
67364;HTU21D;54250;45.572;38.086;2023-05-10T13:29:56;17.37;62.52
67364;HTU21D;54250;45.572;38.086;2023-05-10T13:32:22;17.38;62.38
67364;HTU21D;54250;45.572;38.086;2023-05-10T13:34:48;17.39;62.28
67364;HTU21D;54250;45.572;38.086;2023-05-10T13:37:14;17.35;62.39
67364;HTU21D;54250;45.572;38.086;2023-05-10T13:39:40;17.18;62.78
67364;HTU21D;54250;45.572;38.086;2023-05-10T13:42:06;16.88;63.09
67364;HTU21D;54250;45.572;38.086;2023-05-10T13:44:32;16.55;63.57
67364;HTU21D;54250;45.572;38.086;2023-05-10T13:46:59;16.25;63.98
67364;HTU21D;54250;45.572;38.086;2023-05-10T13:49:25;16.01;64.27
67364;HTU21D;54250;45.572;38.086;2023-05-10T13:51:51;15.80;64.51
67364;HTU21D;54250;45.572;38.086;2023-05-10T13:54:18;15.61;64.74
67364;HTU21D;54250;45.572;38.086;2023-05-10T13:56:47;15.45;64.76
67364;HTU21D;54250;45.572;38.086;2023-05-10T13:59:14;15.27;64.92
67364;HTU21D;54250;45.572;38.086;2023-05-10T14:01:41;15.11;65.04
67364;HTU21D;54250;45.572;38.086;2023-05-10T14:04:08;14.93;65.30
67364;HTU21D;54250;45.572;38.086;2023-05-10T14:06:48;14.80;65.60
67364;HTU21D;54250;45.572;38.086;2023-05-10T14:09:14;14.67;65.90
67364;HTU21D;54250;45.572;38.086;2023-05-10T14:11:41;14.58;65.98
67364;HTU21D;54250;45.572;38.086;2023-05-10T14:14:12;14.48;65.98
67364;HTU21D;54250;45.572;38.086;2023-05-10T14:16:42;14.40;66.16
67364;HTU21D;54250;45.572;38.086;2023-05-10T14:19:09;14.32;66.33
67364;HTU21D;54250;45.572;38.086;2023-05-10T14:21:35;14.21;66.27
67364;HTU21D;54250;45.572;38.086;2023-05-10T14:24:01;14.14;66.50
67364;HTU21D;54250;45.572;38.086;2023-05-10T14:26:27;14.23;66.37
67364;HTU21D;54250;45.572;38.086;2023-05-10T14:28:53;14.20;66.25
67364;HTU21D;54250;45.572;38.086;2023-05-10T14:31:20;14.11;66.46
67364;HTU21D;54250;45.572;38.086;2023-05-10T14:33:46;14.04;66.65
67364;HTU21D;54250;45.572;38.086;2023-05-10T14:36:13;13.86;66.90
67364;HTU21D;54250;45.572;38.086;2023-05-10T14:38:39;13.65;67.33
67364;HTU21D;54250;45.572;38.086;2023-05-10T14:41:06;13.49;67.65
67364;HTU21D;54250;45.572;38.086;2023-05-10T14:43:32;13.43;67.77
67364;HTU21D;54250;45.572;38.086;2023-05-10T14:45:58;13.36;67.88
67364;HTU21D;54250;45.572;38.086;2023-05-10T14:48:24;13.29;67.95
67364;HTU21D;54250;45.572;38.086;2023-05-10T14:50:50;13.17;68.12
67364;HTU21D;54250;45.572;38.086;2023-05-10T14:53:18;13.04;68.22
67364;HTU21D;54250;45.572;38.086;2023-05-10T14:55:44;12.93;68.45
67364;HTU21D;54250;45.572;38.086;2023-05-10T14:58:10;12.82;68.60
67364;HTU21D;54250;45.572;38.086;2023-05-10T15:00:36;12.73;68.70
67364;HTU21D;54250;45.572;38.086;2023-05-10T15:03:03;12.63;68.95
67364;HTU21D;54250;45.572;38.086;2023-05-10T15:05:29;12.53;69.10
67364;HTU21D;54250;45.572;38.086;2023-05-10T15:07:55;12.44;69.25
67364;HTU21D;54250;45.572;38.086;2023-05-10T15:10:21;12.35;69.39
67364;HTU21D;54250;45.572;38.086;2023-05-10T15:12:47;12.26;69.54
67364;HTU21D;54250;45.572;38.086;2023-05-10T15:15:13;12.18;69.69
67364;HTU21D;54250;45.572;38.086;2023-05-10T15:17:40;12.10;69.80
67364;HTU21D;54250;45.572;38.086;2023-05-10T15:20:07;12.00;69.88
67364;HTU21D;54250;45.572;38.086;2023-05-10T15:22:33;11.90;70.01
67364;HTU21D;54250;45.572;38.086;2023-05-10T15:24:59;11.81;70.10
67364;HTU21D;54250;45.572;38.086;2023-05-10T15:27:26;11.72;70.31
67364;HTU21D;54250;45.572;38.086;2023-05-10T15:29:52;11.61;70.56
67364;HTU21D;54250;45.572;38.086;2023-05-10T15:32:18;11.52;70.74
67364;HTU21D;54250;45.572;38.086;2023-05-10T15:34:45;11.40;70.90
67364;HTU21D;54250;45.572;38.086;2023-05-10T15:37:11;11.30;71.06
67364;HTU21D;54250;45.572;38.086;2023-05-10T15:39:37;11.22;71.28
67364;HTU21D;54250;45.572;38.086;2023-05-10T15:42:03;11.11;71.45
67364;HTU21D;54250;45.572;38.086;2023-05-10T15:44:29;11.01;71.61